Cheshire, CT (06408)

2:38 PM EDT on May 25, 2015 (GMT -0400)
Rogers Orchards Sunnymount Farm | | Change Station
CLOSE
Current Station
Personal Weather Station
Location: Southington, CT
Elevation: 666 ft
Nearby Weather Stations

Elev 666 ft 41.56 °N, 72.94 °W | Updated 3 seconds ago

Partly Cloudy
Partly Cloudy
79.7 °F
Feels Like 80 °F
N
8.0
Wind Variable Wind from SW
Gusts 16.0 mph

Today
High -- | Low -- °F
--% Chance of Precip.
Yesterday
High -- | Low -- °F
Precip. -- in
5:24 AM 8:13 PM
Waxing Crescent, 50% visible
Pressure 30.19 in
Visibility 10.0 miles
Clouds Clear
Heat Index 80 °F
Dew Point 57 °F
Humidity 46%
Rainfall 0.00 in
Snow Depth Not available.
UV 11 out of 12
Pollen 9.00 out of 12
Air Quality Not available.
Flu Activity Regional
METAR KMMK 251753Z AUTO 19015G22KT 10SM CLR 28/13 A3020 RMK AO2 SLP223 T02830128 10289 20167 58019 TSNO $

More Conditions Fewer Conditions

Pressure 30.19 in
Visibility 10.0 miles
Clouds Clear
Heat Index 80 °F
Dew Point 57 °F
Humidity 46%
Rainfall 0.00 in
Snow Depth Not available.
UV 11 out of 12
Pollen 9.00 out of 12
Air Quality Not available.
Flu Activity Regional
METAR KMMK 251753Z AUTO 19015G22KT 10SM CLR 28/13 A3020 RMK AO2 SLP223 T02830128 10289 20167 58019 TSNO $

More Conditions Fewer Conditions

10-Day Weather Forecast

Almanac

Astronomy

May. 25, 2015 Rise Set
Actual Time
Civil Twilight
Nautical Twilight
Astronomical Twilight
Moon
Length of Visible Light
Length of Day
Tomorrow will be .
, % of the Moon is Illuminated

Today's Extremes

State Highs State Lows

Community

WunderPhotos

Upload Photos

1,824,078 photos uploaded!

WunderBlogs® & News

Nearby

Air Quality

  Air Quality AQ Index Pollutant
Not available.

Snow Depth

Station Depth Elevation

Earthquake Activity

City Distance Mag. Time & Date
Minimum magnitude displayed is 2.5.

Coastal Water Temperatures

Place Temperature

Stations

Nearby Weather Stations

Station Location Temp. Windchill Dew Point Humidity Wind Precip. Elev Updated Type